createdAt,value
2019-05-23T00:00:01.954Z,14.13
2019-05-23T00:01:01.962Z,14.04
2019-05-23T00:02:01.981Z,14.09
2019-05-23T00:03:01.982Z,14.12
2019-05-23T00:04:01.983Z,13.98
2019-05-23T00:06:02.017Z,14.06
2019-05-23T00:07:02.001Z,14.06
2019-05-23T00:08:02.031Z,14.11
2019-05-23T00:09:02.054Z,14.08
2019-05-23T00:10:02.032Z,14.05
2019-05-23T00:11:02.038Z,14.09
2019-05-23T00:12:02.044Z,14.06
2019-05-23T00:13:02.058Z,13.96
2019-05-23T00:14:02.059Z,13.96
2019-05-23T00:15:02.311Z,13.88
2019-05-23T00:16:02.116Z,13.83
2019-05-23T00:17:02.084Z,13.93
2019-05-23T00:18:02.099Z,13.86
2019-05-23T00:19:02.101Z,13.83
2019-05-23T00:20:02.110Z,13.84
2019-05-23T00:21:02.116Z,13.83
2019-05-23T00:22:02.128Z,13.81
2019-05-23T00:23:02.127Z,13.73
2019-05-23T00:24:02.173Z,13.69
2019-05-23T00:25:02.164Z,13.69
2019-05-23T00:26:02.307Z,13.73
2019-05-23T00:27:02.167Z,13.68
2019-05-23T00:28:02.168Z,13.71
2019-05-23T00:29:10.089Z,13.69
2019-05-23T00:30:02.177Z,13.71
2019-05-23T00:31:02.191Z,13.63
2019-05-23T00:32:02.194Z,13.57
2019-05-23T00:33:02.204Z,13.63
2019-05-23T00:34:02.221Z,13.55
2019-05-23T00:35:02.229Z,13.53
2019-05-23T00:36:02.279Z,13.36
2019-05-23T00:37:02.242Z,13.38
2019-05-23T00:38:02.247Z,13.38
2019-05-23T00:39:02.258Z,13.32
2019-05-23T00:40:02.255Z,13.36
2019-05-23T00:41:02.272Z,13.21
2019-05-23T00:42:02.270Z,13.17
2019-05-23T00:43:02.283Z,13.24
2019-05-23T00:44:02.331Z,13.24
2019-05-23T00:45:02.305Z,13.19
2019-05-23T00:46:02.315Z,13.21
2019-05-23T00:47:02.311Z,13.10
2019-05-23T00:48:02.326Z,13.07
2019-05-23T00:49:02.336Z,13.12
2019-05-23T00:50:02.331Z,13.12
2019-05-23T00:51:39.015Z,13.04
2019-05-23T00:52:02.354Z,12.92
2019-05-23T00:53:02.357Z,12.77
2019-05-23T00:54:02.437Z,12.80
2019-05-23T00:55:02.376Z,12.80
2019-05-23T00:56:02.379Z,12.80
2019-05-23T00:57:02.388Z,12.89
2019-05-23T00:58:02.391Z,12.80
2019-05-23T00:59:02.402Z,12.88
2019-05-23T01:00:02.412Z,12.89
2019-05-23T01:01:02.418Z,12.85
2019-05-23T01:02:02.424Z,12.73
2019-05-23T01:03:02.430Z,12.67
2019-05-23T01:04:02.501Z,12.59
2019-05-23T01:05:02.446Z,12.46
2019-05-23T01:06:02.469Z,12.49
2019-05-23T01:07:02.460Z,12.43
2019-05-23T01:08:02.478Z,12.48
2019-05-23T01:09:02.472Z,12.41
2019-05-23T01:10:02.480Z,12.43
2019-05-23T01:11:02.483Z,12.40
2019-05-23T01:12:02.499Z,12.46
2019-05-23T01:13:02.509Z,12.44
2019-05-23T01:14:02.505Z,12.48
2019-05-23T01:15:02.522Z,12.48
2019-05-23T01:16:02.524Z,12.56
2019-05-23T01:17:02.590Z,12.49
2019-05-23T01:18:02.536Z,12.54
2019-05-23T01:19:02.547Z,12.55
2019-05-23T01:20:02.554Z,12.51
2019-05-23T01:21:02.557Z,12.48
2019-05-23T01:22:02.567Z,12.49
2019-05-23T01:23:02.575Z,12.48
2019-05-23T01:24:02.588Z,12.48
2019-05-23T01:25:02.582Z,12.46
2019-05-23T01:26:02.643Z,12.44
2019-05-23T01:27:02.612Z,12.37
2019-05-23T01:28:02.606Z,12.43
2019-05-23T01:29:02.615Z,12.51
2019-05-23T01:30:02.621Z,12.46
2019-05-23T01:31:02.630Z,12.46
2019-05-23T01:32:02.652Z,12.46
2019-05-23T01:33:02.653Z,12.43
2019-05-23T01:34:02.648Z,12.51
2019-05-23T01:35:02.659Z,12.44
2019-05-23T01:36:02.662Z,12.46
2019-05-23T01:37:02.672Z,12.49
2019-05-23T01:38:04.292Z,12.49
2019-05-23T01:39:02.689Z,12.46
2019-05-23T01:40:02.690Z,12.33
2019-05-23T01:41:02.695Z,12.31
2019-05-23T01:42:02.697Z,12.29
2019-05-23T01:43:02.713Z,12.30
2019-05-23T01:44:02.720Z,12.34
2019-05-23T01:45:02.723Z,12.26
2019-05-23T01:46:02.731Z,12.26
2019-05-23T01:47:02.746Z,12.25
2019-05-23T01:48:02.746Z,12.26
2019-05-23T01:49:02.755Z,12.18
2019-05-23T01:50:02.757Z,12.22
2019-05-23T01:51:02.765Z,12.30
2019-05-23T01:52:02.775Z,12.38
2019-05-23T01:53:02.782Z,12.38
2019-05-23T01:54:02.788Z,12.34
2019-05-23T01:55:02.868Z,12.30
2019-05-23T01:56:02.807Z,12.33
2019-05-23T01:57:02.815Z,12.16
2019-05-23T01:58:02.819Z,12.16
2019-05-23T01:59:02.820Z,12.15
2019-05-23T02:00:10.401Z,12.12
2019-05-23T02:01:02.835Z,12.19
2019-05-23T02:02:02.838Z,12.34
2019-05-23T02:03:02.853Z,12.18
2019-05-23T02:04:02.864Z,12.13
2019-05-23T02:05:02.909Z,12.18
2019-05-23T02:06:02.872Z,12.01
2019-05-23T02:07:02.902Z,12.05
2019-05-23T02:08:02.900Z,12.07
2019-05-23T02:09:02.890Z,12.11
2019-05-23T02:10:02.911Z,12.29
2019-05-23T02:11:02.905Z,12.25
2019-05-23T02:12:02.922Z,12.21
2019-05-23T02:13:02.936Z,12.34
2019-05-23T02:14:02.929Z,12.30
2019-05-23T02:15:02.933Z,12.12
2019-05-23T02:16:02.944Z,12.19
2019-05-23T02:17:02.949Z,12.11
2019-05-23T02:18:03.035Z,12.07
2019-05-23T02:19:02.966Z,12.00
2019-05-23T02:20:02.987Z,12.04
2019-05-23T02:21:03.015Z,12.03
2019-05-23T02:22:02.983Z,12.11
2019-05-23T02:23:02.989Z,12.08
2019-05-23T02:24:02.993Z,12.12
2019-05-23T02:25:03.005Z,12.15
2019-05-23T02:26:03.013Z,12.18
2019-05-23T02:27:03.028Z,12.15
2019-05-23T02:28:03.027Z,12.03
2019-05-23T02:29:03.030Z,12.04
2019-05-23T02:30:03.037Z,11.94
2019-05-23T02:31:03.039Z,11.94
2019-05-23T02:32:03.052Z,11.87
2019-05-23T02:33:03.121Z,11.87
2019-05-23T02:34:03.056Z,11.88
2019-05-23T02:35:03.066Z,11.84
2019-05-23T02:36:03.072Z,11.85
2019-05-23T02:37:03.080Z,11.84
2019-05-23T02:38:03.095Z,11.84
2019-05-23T02:39:03.095Z,11.78
2019-05-23T02:40:03.091Z,11.67
2019-05-23T02:41:03.109Z,11.74
2019-05-23T02:42:03.124Z,11.57
2019-05-23T02:43:03.277Z,11.66
2019-05-23T02:44:03.128Z,11.48
2019-05-23T02:45:03.133Z,11.54
2019-05-23T02:46:03.153Z,11.63
2019-05-23T02:47:03.147Z,11.62
2019-05-23T02:48:03.154Z,11.62
2019-05-23T02:49:03.189Z,11.66
2019-05-23T02:50:03.166Z,11.56
2019-05-23T02:51:03.177Z,11.51
2019-05-23T02:52:03.184Z,11.57
2019-05-23T02:53:03.190Z,11.45
2019-05-23T02:54:03.200Z,11.53
2019-05-23T02:55:03.204Z,11.41
2019-05-23T02:56:03.274Z,11.38
2019-05-23T02:57:03.228Z,11.36
2019-05-23T02:58:03.227Z,11.33
2019-05-23T02:59:03.228Z,11.30
2019-05-23T03:00:03.235Z,11.19
2019-05-23T03:01:03.240Z,11.13
2019-05-23T03:02:03.245Z,11.08
2019-05-23T03:03:03.259Z,11.21
2019-05-23T03:04:03.250Z,11.26
2019-05-23T03:05:03.263Z,11.35
2019-05-23T03:06:03.270Z,11.27
2019-05-23T03:07:03.285Z,11.20
2019-05-23T03:08:03.286Z,11.24
2019-05-23T03:09:03.297Z,11.28
2019-05-23T03:10:03.308Z,11.36
2019-05-23T03:11:03.306Z,11.31
2019-05-23T03:12:03.309Z,11.28
2019-05-23T03:13:03.316Z,11.39
2019-05-23T03:14:03.319Z,11.42
2019-05-23T03:15:03.328Z,11.49
2019-05-23T03:16:03.345Z,11.53
2019-05-23T03:17:03.338Z,11.49
2019-05-23T03:18:03.347Z,11.45
2019-05-23T03:19:03.381Z,11.49
2019-05-23T03:20:03.365Z,11.46
2019-05-23T03:21:03.455Z,11.49
2019-05-23T03:22:03.373Z,11.56
2019-05-23T03:23:03.383Z,11.56
2019-05-23T03:24:03.455Z,11.56
2019-05-23T03:25:03.394Z,11.51
2019-05-23T03:26:03.402Z,11.48
2019-05-23T03:27:03.404Z,11.49
2019-05-23T03:28:03.405Z,11.54
2019-05-23T03:29:03.422Z,11.39
2019-05-23T03:30:03.430Z,11.39
2019-05-23T03:31:27.375Z,11.27
2019-05-23T03:32:03.440Z,11.36
2019-05-23T03:33:03.444Z,11.30
2019-05-23T03:34:03.450Z,11.46
2019-05-23T03:35:03.458Z,11.35
2019-05-23T03:36:03.467Z,11.31
2019-05-23T03:37:03.507Z,11.35
2019-05-23T03:38:03.475Z,11.28
2019-05-23T03:39:03.488Z,11.36
2019-05-23T03:40:03.487Z,11.33
2019-05-23T03:41:03.498Z,11.30
2019-05-23T03:42:03.513Z,11.27
2019-05-23T03:43:03.518Z,11.31
2019-05-23T03:44:03.506Z,11.33
2019-05-23T03:45:03.527Z,11.36
2019-05-23T03:46:03.552Z,11.24
2019-05-23T03:47:03.705Z,11.28
2019-05-23T03:48:03.541Z,11.13
2019-05-23T03:49:03.545Z,11.16
2019-05-23T03:50:03.555Z,11.21
2019-05-23T03:51:03.569Z,11.11
2019-05-23T03:52:03.568Z,11.13
2019-05-23T03:53:03.573Z,11.21
2019-05-23T03:54:03.588Z,11.26
2019-05-23T03:55:03.590Z,11.30
2019-05-23T03:56:03.595Z,11.28
2019-05-23T03:57:03.606Z,11.46
2019-05-23T03:58:03.604Z,11.33
2019-05-23T03:59:03.613Z,11.44
2019-05-23T04:00:03.626Z,11.38
2019-05-23T04:01:03.639Z,11.39
2019-05-23T04:02:03.648Z,11.51
2019-05-23T04:03:03.788Z,11.51
2019-05-23T04:04:03.650Z,11.48
2019-05-23T04:05:03.711Z,11.48
2019-05-23T04:06:03.654Z,11.53
2019-05-23T04:07:03.667Z,11.53
2019-05-23T04:08:03.696Z,11.53
2019-05-23T04:09:03.699Z,11.64
2019-05-23T04:10:03.678Z,11.56
2019-05-23T04:11:03.688Z,11.66
2019-05-23T04:12:03.702Z,11.69
2019-05-23T04:13:03.707Z,11.63
2019-05-23T04:14:03.715Z,11.62
2019-05-23T04:15:03.791Z,11.72
2019-05-23T04:16:03.737Z,11.72
2019-05-23T04:17:03.736Z,11.60
2019-05-23T04:18:03.745Z,11.77
2019-05-23T04:19:03.749Z,11.69
2019-05-23T04:20:03.749Z,11.77
2019-05-23T04:21:03.761Z,11.77
2019-05-23T04:22:03.757Z,11.75
2019-05-23T04:23:03.771Z,11.75
2019-05-23T04:24:03.780Z,11.78
2019-05-23T04:25:03.787Z,11.78
2019-05-23T04:26:03.789Z,11.84
2019-05-23T04:27:03.806Z,11.77
2019-05-23T04:28:03.808Z,11.79
2019-05-23T04:29:03.827Z,11.88
2019-05-23T04:30:03.824Z,11.87
2019-05-23T04:31:03.820Z,11.93
2019-05-23T04:32:08.528Z,12.11
2019-05-23T04:33:03.838Z,12.11
2019-05-23T04:34:03.858Z,12.23
2019-05-23T04:35:03.849Z,12.34
2019-05-23T04:36:03.867Z,12.38
2019-05-23T04:37:03.872Z,12.40
2019-05-23T04:38:03.951Z,12.37
2019-05-23T04:39:03.895Z,12.36
2019-05-23T04:40:03.893Z,12.33
2019-05-23T04:41:03.896Z,12.29
2019-05-23T04:42:03.907Z,12.26
2019-05-23T04:43:03.914Z,12.26
2019-05-23T04:44:03.917Z,12.29
2019-05-23T04:45:03.916Z,12.29
2019-05-23T04:46:03.931Z,12.41
2019-05-23T04:47:03.937Z,12.41
2019-05-23T04:48:03.942Z,12.40
2019-05-23T04:49:03.953Z,12.58
2019-05-23T04:50:03.965Z,12.55
2019-05-23T04:51:03.972Z,12.51
2019-05-23T04:52:03.978Z,12.46
2019-05-23T04:53:03.974Z,12.36
2019-05-23T04:54:03.990Z,12.43
2019-05-23T04:55:04.000Z,12.49
2019-05-23T04:56:04.004Z,12.38
2019-05-23T04:57:04.019Z,12.41
2019-05-23T04:58:05.059Z,12.34
2019-05-23T04:59:04.026Z,12.43
2019-05-23T05:00:04.031Z,12.46
2019-05-23T05:01:04.037Z,12.55
2019-05-23T05:02:04.046Z,12.52
2019-05-23T05:03:04.054Z,12.55
2019-05-23T05:04:04.060Z,12.58
2019-05-23T05:05:04.067Z,12.61
2019-05-23T05:06:04.097Z,12.56
2019-05-23T05:07:04.082Z,12.59
2019-05-23T05:08:04.203Z,12.66
2019-05-23T05:09:04.094Z,12.70
2019-05-23T05:10:04.103Z,12.70
2019-05-23T05:11:04.112Z,12.66
2019-05-23T05:12:04.119Z,12.67
2019-05-23T05:13:04.123Z,12.67
2019-05-23T05:14:04.129Z,12.66
2019-05-23T05:15:04.144Z,12.61
2019-05-23T05:16:04.152Z,12.67
2019-05-23T05:17:04.147Z,12.67
2019-05-23T05:18:04.160Z,12.84
2019-05-23T05:19:04.173Z,12.76
2019-05-23T05:20:04.174Z,12.76
2019-05-23T05:21:04.184Z,12.76
2019-05-23T05:22:04.230Z,12.79
2019-05-23T05:23:04.195Z,12.76
2019-05-23T05:24:04.206Z,12.79
2019-05-23T05:25:04.213Z,12.76
2019-05-23T05:26:04.215Z,12.80
2019-05-23T05:27:04.242Z,12.76
2019-05-23T05:28:04.233Z,12.81
2019-05-23T05:29:04.284Z,12.79
2019-05-23T05:30:04.242Z,12.69
2019-05-23T05:31:04.274Z,12.69
2019-05-23T05:32:04.333Z,12.69
2019-05-23T05:33:04.274Z,12.73
2019-05-23T05:34:04.281Z,12.66
2019-05-23T05:35:04.291Z,12.67
2019-05-23T05:36:04.334Z,12.63
2019-05-23T05:37:04.304Z,12.69
2019-05-23T05:38:04.317Z,12.59
2019-05-23T05:39:04.384Z,12.51
2019-05-23T05:40:04.327Z,12.55
2019-05-23T05:41:04.344Z,12.51
2019-05-23T05:42:04.343Z,12.66
2019-05-23T05:43:04.356Z,12.67
2019-05-23T05:44:04.474Z,12.67
2019-05-23T05:45:04.537Z,12.84
2019-05-23T05:46:04.387Z,12.77
2019-05-23T05:47:04.383Z,12.89
2019-05-23T05:48:04.390Z,12.79
2019-05-23T05:49:04.434Z,12.91
2019-05-23T05:50:04.409Z,12.98
2019-05-23T05:51:04.568Z,13.03
2019-05-23T05:52:04.408Z,13.07
2019-05-23T05:53:04.429Z,13.03
2019-05-23T05:54:04.455Z,13.09
2019-05-23T05:55:04.442Z,13.14
2019-05-23T05:56:04.635Z,13.25
2019-05-23T05:57:04.537Z,13.36
2019-05-23T05:58:04.474Z,13.36
2019-05-23T05:59:04.497Z,13.39
2019-05-23T06:00:04.488Z,13.46
2019-05-23T06:01:04.790Z,13.44
2019-05-23T06:02:04.501Z,13.61
2019-05-23T06:03:05.753Z,13.63
2019-05-23T06:04:04.526Z,13.73
2019-05-23T06:06:04.784Z,13.86
2019-05-23T06:07:04.535Z,13.88
2019-05-23T06:08:04.559Z,13.91
2019-05-23T06:09:04.551Z,13.94
2019-05-23T06:10:04.583Z,13.80
2019-05-23T06:11:04.574Z,13.86
2019-05-23T06:12:04.581Z,13.91
2019-05-23T06:13:04.582Z,13.88
2019-05-23T06:14:04.596Z,13.99
2019-05-23T06:15:04.664Z,13.91
2019-05-23T06:16:04.623Z,13.99
2019-05-23T06:17:04.612Z,14.02
2019-05-23T06:19:04.632Z,14.19
2019-05-23T06:20:04.656Z,14.29
2019-05-23T06:21:04.655Z,14.29
2019-05-23T06:22:04.692Z,14.46
2019-05-23T06:23:04.691Z,14.42
2019-05-23T06:24:04.679Z,14.45
2019-05-23T06:25:04.806Z,14.39
2019-05-23T06:26:04.703Z,14.44
2019-05-23T06:27:04.711Z,14.44
2019-05-23T06:28:04.739Z,14.52
2019-05-23T06:29:04.750Z,14.66
2019-05-23T06:30:04.748Z,14.66
2019-05-23T06:31:04.775Z,14.87
2019-05-23T06:32:04.774Z,14.85
2019-05-23T06:33:21.971Z,14.94
2019-05-23T06:34:04.787Z,14.95
2019-05-23T06:35:04.813Z,15.04
2019-05-23T06:36:04.827Z,15.20
2019-05-23T06:37:04.828Z,15.15
2019-05-23T06:38:04.855Z,15.31
2019-05-23T06:39:04.870Z,15.48
2019-05-23T06:40:04.867Z,15.53
2019-05-23T06:42:04.898Z,15.70
2019-05-23T06:43:04.970Z,15.70
2019-05-23T06:44:04.925Z,15.80
2019-05-23T06:45:05.070Z,15.78
2019-05-23T06:46:04.953Z,15.86
2019-05-23T06:47:04.969Z,15.81
2019-05-23T06:48:04.978Z,15.96
2019-05-23T06:49:04.991Z,16.03
2019-05-23T06:50:05.011Z,16.10
2019-05-23T06:51:05.425Z,16.10
2019-05-23T06:52:05.037Z,16.23
2019-05-23T06:53:05.118Z,16.18
2019-05-23T06:54:05.064Z,16.41
2019-05-23T06:55:05.201Z,16.33
2019-05-23T06:56:05.096Z,16.34
2019-05-23T06:57:05.115Z,16.32
2019-05-23T06:58:05.133Z,16.40
2019-05-23T06:59:05.143Z,16.34
2019-05-23T07:00:05.164Z,16.42
2019-05-23T07:01:05.172Z,16.36
2019-05-23T07:02:05.183Z,16.50
2019-05-23T07:03:05.202Z,16.67
2019-05-23T07:04:05.208Z,16.73
2019-05-23T07:05:05.350Z,16.85
2019-05-23T07:06:05.237Z,16.90
2019-05-23T07:07:05.251Z,16.95
2019-05-23T07:08:05.261Z,17.09
2019-05-23T07:09:05.280Z,17.12
2019-05-23T07:10:05.299Z,17.21
2019-05-23T07:11:05.317Z,17.28
2019-05-23T07:12:05.330Z,17.40
2019-05-23T07:13:05.350Z,17.51
2019-05-23T07:14:05.360Z,17.49
2019-05-23T07:15:05.451Z,17.49
2019-05-23T07:16:05.396Z,17.65
2019-05-23T07:17:05.401Z,17.54
2019-05-23T07:18:05.422Z,17.66
2019-05-23T07:19:05.431Z,17.62
2019-05-23T07:20:05.448Z,17.68
2019-05-23T07:21:05.476Z,17.87
2019-05-23T07:22:05.482Z,17.92
2019-05-23T07:23:05.512Z,17.89
2019-05-23T07:24:05.513Z,17.95
2019-05-23T07:25:05.542Z,18.04
2019-05-23T07:26:05.559Z,18.25
2019-05-23T07:27:05.567Z,18.17
2019-05-23T07:28:05.580Z,18.28
2019-05-23T07:29:05.579Z,18.42
2019-05-23T07:30:05.632Z,18.50
2019-05-23T07:31:05.620Z,18.64
2019-05-23T07:32:05.667Z,18.69
2019-05-23T07:33:05.699Z,18.71
2019-05-23T07:34:05.684Z,18.79
2019-05-23T07:35:05.683Z,18.74
2019-05-23T07:36:05.702Z,18.69
2019-05-23T07:37:05.747Z,18.59
2019-05-23T07:38:05.740Z,18.60
2019-05-23T07:39:05.752Z,18.60
2019-05-23T07:40:05.759Z,18.72
2019-05-23T07:41:05.774Z,18.86
2019-05-23T07:42:05.797Z,19.09
2019-05-23T07:43:05.815Z,19.35
2019-05-23T07:44:05.860Z,19.58
2019-05-23T07:45:05.859Z,19.70
2019-05-23T07:46:05.871Z,19.58
2019-05-23T07:47:05.869Z,19.65
2019-05-23T07:48:05.921Z,19.70
2019-05-23T07:49:05.908Z,19.45
2019-05-23T07:50:05.943Z,19.17
2019-05-23T07:51:05.936Z,19.01
2019-05-23T07:52:05.953Z,18.84
2019-05-23T07:53:05.981Z,19.05
2019-05-23T07:54:06.010Z,19.02
2019-05-23T07:55:06.019Z,19.32
2019-05-23T07:56:06.021Z,19.60
2019-05-23T07:57:06.084Z,19.65
2019-05-23T07:58:06.060Z,19.76
2019-05-23T07:59:06.072Z,19.90
2019-05-23T08:00:06.111Z,20.12
2019-05-23T08:01:06.110Z,20.35
2019-05-23T08:02:06.121Z,20.53
2019-05-23T08:03:06.138Z,20.26
2019-05-23T08:04:20.697Z,20.26
2019-05-23T08:05:06.182Z,20.20
2019-05-23T08:06:06.232Z,20.12
2019-05-23T08:07:06.274Z,20.22
2019-05-23T08:08:06.241Z,20.17
2019-05-23T08:09:06.247Z,20.23
2019-05-23T08:10:06.271Z,20.22
2019-05-23T08:11:06.268Z,20.13
2019-05-23T08:12:06.288Z,20.27
2019-05-23T08:13:06.303Z,20.23
2019-05-23T08:14:06.325Z,20.20
2019-05-23T08:15:06.347Z,20.12
2019-05-23T08:16:06.353Z,19.85
2019-05-23T08:17:06.374Z,19.72
2019-05-23T08:18:06.390Z,19.80
2019-05-23T08:19:06.405Z,19.95
2019-05-23T08:20:06.431Z,19.76
2019-05-23T08:21:06.437Z,19.82
2019-05-23T08:22:06.526Z,20.15
2019-05-23T08:23:06.473Z,20.53
2019-05-23T08:24:06.492Z,20.93
2019-05-23T08:25:06.505Z,20.96
2019-05-23T08:26:06.525Z,20.85
2019-05-23T08:27:06.551Z,20.46
2019-05-23T08:28:06.561Z,20.31
2019-05-23T08:29:24.912Z,20.12
2019-05-23T08:30:06.588Z,20.22
2019-05-23T08:31:06.615Z,20.60
2019-05-23T08:32:06.664Z,21.13
2019-05-23T08:33:06.814Z,21.49
2019-05-23T08:34:06.664Z,21.53
2019-05-23T08:35:06.675Z,21.79
2019-05-23T08:36:06.696Z,21.91
2019-05-23T08:37:06.712Z,22.23
2019-05-23T08:38:06.737Z,22.30
2019-05-23T08:39:06.748Z,22.12
2019-05-23T08:40:06.768Z,22.38
2019-05-23T08:41:06.835Z,22.36
2019-05-23T08:42:06.811Z,22.54
2019-05-23T08:43:06.819Z,22.75
2019-05-23T08:44:06.841Z,22.78
2019-05-23T08:45:06.859Z,22.61
2019-05-23T08:46:06.899Z,21.94
2019-05-23T08:47:06.897Z,21.19
2019-05-23T08:48:06.903Z,21.06
2019-05-23T08:49:06.933Z,21.18
2019-05-23T08:50:06.941Z,21.21
2019-05-23T08:51:06.966Z,21.31
2019-05-23T08:52:06.972Z,21.51
2019-05-23T08:53:06.988Z,21.70
2019-05-23T08:54:07.012Z,21.63
2019-05-23T08:55:07.024Z,21.51
2019-05-23T08:56:17.975Z,21.68
2019-05-23T08:57:07.058Z,21.85
2019-05-23T08:58:07.087Z,21.90
2019-05-23T08:59:07.083Z,21.85
2019-05-23T09:00:07.121Z,21.71
2019-05-23T09:01:07.139Z,21.91
2019-05-23T09:02:07.157Z,21.86
2019-05-23T09:03:07.160Z,21.75
2019-05-23T09:04:07.183Z,21.82
2019-05-23T09:05:07.225Z,22.05
2019-05-23T09:06:07.211Z,22.26
2019-05-23T09:07:07.246Z,22.12
2019-05-23T09:08:07.252Z,22.06
2019-05-23T09:09:27.437Z,22.04
2019-05-23T09:10:07.296Z,21.85
2019-05-23T09:11:07.297Z,21.85
2019-05-23T09:12:07.327Z,21.66
2019-05-23T09:13:07.339Z,21.66
2019-05-23T09:14:07.365Z,21.67
2019-05-23T09:15:10.033Z,21.74
2019-05-23T09:16:07.409Z,21.83
2019-05-23T09:17:07.459Z,21.98
2019-05-23T09:18:07.425Z,22.08
2019-05-23T09:19:07.456Z,22.24
2019-05-23T09:20:07.485Z,22.27
2019-05-23T09:21:07.472Z,22.36
2019-05-23T09:22:07.508Z,22.70
2019-05-23T09:23:07.527Z,22.76
2019-05-23T09:24:07.530Z,22.97
2019-05-23T09:25:07.556Z,22.99
2019-05-23T09:26:07.568Z,22.99
2019-05-23T09:27:07.592Z,23.12
2019-05-23T09:28:07.611Z,22.96
2019-05-23T09:29:07.678Z,22.96
2019-05-23T09:30:07.638Z,22.70
2019-05-23T09:31:07.754Z,23.00
2019-05-23T09:32:07.687Z,23.35
2019-05-23T09:33:07.700Z,23.81
2019-05-23T09:34:07.715Z,24.11
2019-05-23T09:35:20.287Z,23.99
2019-05-23T09:36:07.744Z,23.77
2019-05-23T09:37:07.766Z,23.68
2019-05-23T09:38:07.794Z,23.62
2019-05-23T09:39:07.802Z,24.00
2019-05-23T09:40:07.821Z,24.19
2019-05-23T09:41:07.842Z,24.14
2019-05-23T09:42:11.755Z,23.75
2019-05-23T09:43:07.921Z,23.75
2019-05-23T09:44:07.905Z,23.82
2019-05-23T09:45:07.922Z,23.99
2019-05-23T09:46:07.934Z,23.89
2019-05-23T09:47:07.955Z,23.89
2019-05-23T09:48:07.968Z,23.74
2019-05-23T09:49:11.130Z,23.34
2019-05-23T09:50:08.008Z,23.49
2019-05-23T09:51:08.023Z,23.94
2019-05-23T09:52:08.281Z,24.08
2019-05-23T09:53:08.056Z,24.31
2019-05-23T09:54:08.076Z,24.31
2019-05-23T09:55:08.089Z,24.29
2019-05-23T09:56:08.199Z,24.44
2019-05-23T09:57:08.135Z,24.60
2019-05-23T09:58:08.151Z,24.67
2019-05-23T09:59:08.198Z,24.31
2019-05-23T10:00:08.192Z,24.59
2019-05-23T10:01:08.200Z,24.46
2019-05-23T10:02:08.240Z,24.42
2019-05-23T10:03:08.226Z,24.60
2019-05-23T10:04:08.260Z,25.11
2019-05-23T10:05:08.278Z,25.23
2019-05-23T10:06:08.301Z,25.01
2019-05-23T10:07:08.321Z,24.61
2019-05-23T10:08:08.331Z,24.60
2019-05-23T10:09:08.349Z,24.68
2019-05-23T10:10:08.361Z,24.61
2019-05-23T10:11:08.384Z,25.08
2019-05-23T10:12:08.402Z,24.61
2019-05-23T10:13:08.560Z,23.87
2019-05-23T10:14:08.435Z,23.42
2019-05-23T10:15:08.461Z,23.45
2019-05-23T10:16:08.509Z,23.79
2019-05-23T10:17:08.489Z,24.30
2019-05-23T10:18:08.574Z,24.68
2019-05-23T10:19:08.525Z,25.23
2019-05-23T10:20:08.547Z,26.09
2019-05-23T10:21:08.563Z,26.16
2019-05-23T10:22:08.589Z,26.34
2019-05-23T10:23:08.593Z,26.17
2019-05-23T10:24:08.619Z,26.41
2019-05-23T10:25:08.632Z,26.65
2019-05-23T10:26:08.659Z,26.69
2019-05-23T10:27:08.674Z,26.13
2019-05-23T10:28:08.686Z,25.08
2019-05-23T10:29:08.705Z,24.44
2019-05-23T10:30:08.725Z,24.84
2019-05-23T10:31:08.734Z,25.23
2019-05-23T10:32:08.756Z,25.81
2019-05-23T10:33:12.150Z,26.50
2019-05-23T10:34:08.798Z,27.12
2019-05-23T10:35:08.820Z,26.35
2019-05-23T10:36:08.830Z,26.69
2019-05-23T10:37:08.839Z,27.05
2019-05-23T10:38:08.871Z,26.93
2019-05-23T10:39:08.871Z,26.88
2019-05-23T10:40:08.892Z,27.18
2019-05-23T10:41:08.902Z,27.43
2019-05-23T10:42:08.921Z,27.59
2019-05-23T10:43:08.942Z,27.88
2019-05-23T10:44:08.986Z,28.24
2019-05-23T10:45:08.996Z,27.83
2019-05-23T10:46:08.999Z,26.73
2019-05-23T10:47:09.017Z,26.56
2019-05-23T10:48:09.036Z,26.72
2019-05-23T10:49:09.047Z,27.03
2019-05-23T10:50:10.068Z,27.58
2019-05-23T10:51:09.091Z,27.76
2019-05-23T10:52:09.137Z,27.35
2019-05-23T10:53:09.123Z,27.03
2019-05-23T10:54:09.137Z,26.34
2019-05-23T10:55:09.174Z,26.46
2019-05-23T10:56:09.175Z,26.04
2019-05-23T10:57:09.198Z,25.74
2019-05-23T10:58:09.351Z,25.34
2019-05-23T10:59:09.235Z,24.90
2019-05-23T11:00:09.252Z,24.79
2019-05-23T11:01:09.265Z,25.08
2019-05-23T11:02:09.298Z,25.36
2019-05-23T11:03:09.300Z,25.89
2019-05-23T11:04:09.325Z,26.34
2019-05-23T11:05:13.368Z,26.00
2019-05-23T11:06:16.292Z,26.34
2019-05-23T11:07:09.378Z,26.49
2019-05-23T11:08:09.406Z,26.38
2019-05-23T11:09:09.425Z,26.50
2019-05-23T11:10:09.432Z,27.11
2019-05-23T11:11:14.029Z,27.80
2019-05-23T11:12:09.496Z,27.74
2019-05-23T11:13:09.477Z,27.90
2019-05-23T11:14:09.713Z,27.91
2019-05-23T11:15:09.524Z,27.31
2019-05-23T11:16:09.541Z,27.25
2019-05-23T11:17:09.551Z,26.69
2019-05-23T11:18:09.581Z,26.38
2019-05-23T11:19:09.592Z,26.32
2019-05-23T11:20:09.610Z,26.35
2019-05-23T11:21:09.618Z,26.78
2019-05-23T11:22:09.679Z,27.02
2019-05-23T11:23:09.653Z,26.61
2019-05-23T11:24:09.677Z,26.79
2019-05-23T11:25:09.689Z,26.93
2019-05-23T11:26:09.711Z,27.71
2019-05-23T11:27:09.729Z,28.55
2019-05-23T11:28:09.744Z,28.79
2019-05-23T11:29:09.782Z,29.32
2019-05-23T11:30:09.776Z,29.27
2019-05-23T11:31:09.798Z,29.29
2019-05-23T11:32:09.810Z,29.81
2019-05-23T11:33:09.838Z,29.41
2019-05-23T11:34:09.852Z,29.10
2019-05-23T11:35:09.866Z,29.63
2019-05-23T11:36:09.886Z,30.29
2019-05-23T11:37:09.915Z,30.82
2019-05-23T11:38:09.928Z,30.70
2019-05-23T11:39:09.968Z,30.49
2019-05-23T11:40:09.997Z,30.46
2019-05-23T11:41:09.962Z,30.61
2019-05-23T11:42:09.998Z,30.96
2019-05-23T11:43:10.015Z,31.38
2019-05-23T11:44:10.037Z,30.91
2019-05-23T11:45:10.050Z,30.64
2019-05-23T11:46:10.066Z,29.60
2019-05-23T11:47:10.087Z,28.25
2019-05-23T11:48:10.107Z,28.23
2019-05-23T11:49:10.132Z,28.77
2019-05-23T11:50:10.256Z,29.17
2019-05-23T11:51:10.168Z,29.14
2019-05-23T11:52:10.198Z,28.27
2019-05-23T11:53:10.193Z,27.72
2019-05-23T11:54:10.411Z,27.40
2019-05-23T11:55:10.233Z,27.61
2019-05-23T11:56:10.269Z,27.95
2019-05-23T11:57:10.393Z,27.88
2019-05-23T11:58:10.310Z,28.54
2019-05-23T11:59:10.303Z,29.00
2019-05-23T12:00:10.406Z,29.45
2019-05-23T12:01:10.893Z,28.89
2019-05-23T12:02:10.356Z,28.23
2019-05-23T12:03:10.393Z,28.03
2019-05-23T12:04:10.399Z,28.36
2019-05-23T12:05:10.417Z,28.32
2019-05-23T12:06:10.434Z,27.39
2019-05-23T12:07:10.461Z,26.88
2019-05-23T12:08:10.485Z,27.11
2019-05-23T12:09:10.515Z,27.06
2019-05-23T12:10:10.544Z,27.01
2019-05-23T12:11:10.524Z,27.16
2019-05-23T12:12:10.547Z,27.15
2019-05-23T12:13:10.571Z,26.35
2019-05-23T12:14:10.583Z,26.17
2019-05-23T12:15:10.593Z,25.83
2019-05-23T12:16:10.622Z,26.41
2019-05-23T12:17:10.632Z,26.90
2019-05-23T12:18:10.647Z,27.48
2019-05-23T12:19:10.674Z,27.84
2019-05-23T12:20:10.811Z,28.32
2019-05-23T12:21:10.696Z,28.33
2019-05-23T12:22:10.711Z,28.20
2019-05-23T12:23:11.326Z,28.36
2019-05-23T12:24:10.748Z,28.03
2019-05-23T12:25:21.715Z,28.25
2019-05-23T12:26:10.784Z,28.46
2019-05-23T12:27:10.802Z,28.57
2019-05-23T12:28:10.819Z,28.15
2019-05-23T12:29:10.847Z,27.21
2019-05-23T12:30:10.858Z,27.08
2019-05-23T12:31:10.859Z,27.83
2019-05-23T12:32:10.937Z,28.33
2019-05-23T12:33:10.919Z,29.03
2019-05-23T12:34:10.918Z,28.82
2019-05-23T12:35:12.172Z,28.88
2019-05-23T12:36:10.974Z,29.44
2019-05-23T12:37:20.414Z,29.21
2019-05-23T12:38:10.998Z,29.14
2019-05-23T12:39:11.015Z,29.44
2019-05-23T12:40:11.024Z,29.63
2019-05-23T12:41:11.051Z,29.92
2019-05-23T12:42:11.246Z,30.56
2019-05-23T12:43:11.079Z,31.27
2019-05-23T12:44:11.097Z,31.85
2019-05-23T12:45:11.153Z,32.49
2019-05-23T12:46:11.178Z,31.87
2019-05-23T12:47:11.147Z,30.79
2019-05-23T12:48:11.162Z,29.94
2019-05-23T12:49:11.194Z,29.47
2019-05-23T12:50:11.237Z,29.79
2019-05-23T12:51:11.223Z,29.14
2019-05-23T12:52:11.328Z,29.42
2019-05-23T12:53:11.257Z,29.85
2019-05-23T12:54:11.261Z,29.45
2019-05-23T12:55:11.314Z,29.15
2019-05-23T12:56:11.429Z,28.79